Monticello, Maine
Current Conditions -  °F | °C
As of 4:53 AM on Sunday 25 Jan 2015 (Local Time) from KHUL Reporting Station
Overcast Overcast  
Wind Chill: 19°   Ceiling: 2000
Heat Index: 28°   Visibility: 9mi
Dew Point: 21°   Wind: 9mph
Humidity: 75%   Direction: 270°W
Pressure: 29.07"   Gusts: NA
Location:  46.31°N, 67.84°W
Report Text: KHUL 250953Z AUTO 27008KT 9SM BKN020 OVC075 M02/M06 A2907 RMK AO2 SLP850 T10221061
Loading
Personal Weather Stations






























Interactive Weather Map New forecast layout! Learn more

10-Day Weather Forecast

Advertisements
Track Severe Weather on mobile